Terminal Aerodrome Forecast
Issued by NWS

Home | Current Version | Previous Version | Text Only | Print | Product List | Glossary On
Versions: 1 2 3 4 5 6 7 8 9 10 11 12 13
599
FTUS43 KOAX 111120
TAFSNY
TAF
KSNY 111120Z 1112/1212 28010KT P6SM SCT200
     FM111700 28021G30KT P6SM BKN200
     FM120300 31011KT P6SM BKN150=

USA.gov is the U.S. government's official web portal to all federal, state and local government web resources and services.